createdAt,value
2023-08-12T00:00:12.178Z,87.16
2023-08-12T00:02:42.716Z,88.02
2023-08-12T00:05:11.901Z,87.64
2023-08-12T00:07:38.453Z,88.21
2023-08-12T00:10:06.051Z,87.58
2023-08-12T00:12:33.043Z,88.53
2023-08-12T00:15:00.162Z,88.51
2023-08-12T00:17:26.669Z,89.17
2023-08-12T00:19:53.292Z,87.90
2023-08-12T00:22:19.922Z,87.41
2023-08-12T00:24:46.517Z,87.25
2023-08-12T00:27:13.260Z,87.60
2023-08-12T00:29:40.223Z,89.37
2023-08-12T00:32:06.995Z,88.57
2023-08-12T00:34:33.455Z,89.26
2023-08-12T00:36:59.897Z,88.22
2023-08-12T00:39:26.378Z,88.67
2023-08-12T00:41:52.906Z,89.04
2023-08-12T00:44:19.501Z,89.42
2023-08-12T00:46:46.187Z,89.76
2023-08-12T00:49:13.881Z,89.94
2023-08-12T00:51:45.527Z,89.86
2023-08-12T00:54:15.505Z,89.82
2023-08-12T00:56:42.827Z,90.04
2023-08-12T00:59:11.308Z,88.71
2023-08-12T01:01:42.593Z,88.07
2023-08-12T01:04:09.194Z,89.56
2023-08-12T01:06:36.598Z,88.51
2023-08-12T01:09:06.157Z,89.17
2023-08-12T01:12:10.181Z,88.94
2023-08-12T01:14:48.856Z,89.50
2023-08-12T01:17:16.677Z,89.11
2023-08-12T01:19:44.060Z,89.32
2023-08-12T01:22:12.646Z,88.57
2023-08-12T01:24:40.891Z,88.76
2023-08-12T01:27:09.334Z,88.52
2023-08-12T01:29:42.505Z,87.66
2023-08-12T01:32:38.341Z,88.05
2023-08-12T01:35:12.869Z,87.62
2023-08-12T01:37:40.362Z,88.34
2023-08-12T01:40:10.198Z,88.74
2023-08-12T01:42:40.979Z,90.11
2023-08-12T01:45:08.088Z,89.03
2023-08-12T01:47:34.663Z,89.42
2023-08-12T01:50:01.217Z,89.45
2023-08-12T01:52:27.745Z,89.24
2023-08-12T01:54:54.181Z,88.64
2023-08-12T01:57:20.693Z,88.25
2023-08-12T01:59:47.339Z,90.06
2023-08-12T02:02:14.230Z,88.47
2023-08-12T02:04:43.454Z,89.25
2023-08-12T02:07:10.190Z,88.63
2023-08-12T02:09:36.922Z,89.59
2023-08-12T02:12:03.557Z,89.85
2023-08-12T02:14:30.047Z,89.87
2023-08-12T02:16:56.484Z,88.73
2023-08-12T02:19:22.951Z,89.10
2023-08-12T02:21:49.478Z,88.39
2023-08-12T02:24:15.891Z,88.76
2023-08-12T02:26:42.285Z,88.93
2023-08-12T02:29:08.724Z,89.70
2023-08-12T02:31:35.233Z,89.32
2023-08-12T02:34:01.684Z,89.52
2023-08-12T02:36:28.155Z,90.36
2023-08-12T02:38:54.558Z,90.85
2023-08-12T02:41:20.963Z,90.58
2023-08-12T02:43:47.427Z,89.47
2023-08-12T02:46:16.319Z,89.46
2023-08-12T02:48:45.714Z,91.70
2023-08-12T02:51:12.214Z,91.03
2023-08-12T02:53:38.590Z,89.17
2023-08-12T02:56:05.086Z,89.39
2023-08-12T02:58:31.614Z,89.01
2023-08-12T03:00:58.314Z,90.02
2023-08-12T03:03:24.792Z,89.05
2023-08-12T03:05:51.232Z,90.00
2023-08-12T03:08:17.657Z,89.96
2023-08-12T03:10:45.971Z,92.47
2023-08-12T03:13:12.527Z,93.96
2023-08-12T03:15:43.043Z,93.84
2023-08-12T03:18:09.469Z,94.64
2023-08-12T03:20:35.930Z,93.72
2023-08-12T03:23:02.396Z,95.19
2023-08-12T03:25:28.826Z,94.96
2023-08-12T03:27:55.224Z,95.45
2023-08-12T03:30:21.788Z,95.54
2023-08-12T03:32:48.188Z,95.35
2023-08-12T03:35:15.242Z,96.12
2023-08-12T03:37:42.726Z,96.67
2023-08-12T03:40:09.794Z,96.52
2023-08-12T03:42:36.420Z,96.78
2023-08-12T03:45:03.069Z,96.24
2023-08-12T03:47:29.571Z,99.83
2023-08-12T03:49:56.101Z,98.36
2023-08-12T03:52:30.342Z,100.00
2023-08-12T03:54:59.794Z,100.00
2023-08-12T03:57:26.255Z,100.00
2023-08-12T03:59:52.697Z,99.67
2023-08-12T04:02:19.104Z,98.95
2023-08-12T04:04:45.528Z,99.20
2023-08-12T04:07:37.454Z,98.69
2023-08-12T04:10:02.085Z,100.00
2023-08-12T04:12:28.545Z,100.00
2023-08-12T04:14:54.994Z,100.00
2023-08-12T04:17:24.412Z,100.00
2023-08-12T04:19:50.926Z,100.00
2023-08-12T04:22:17.901Z,100.00
2023-08-12T04:24:44.336Z,100.00
2023-08-12T04:27:16.976Z,100.00
2023-08-12T04:29:43.826Z,100.00
2023-08-12T04:32:10.306Z,100.00
2023-08-12T04:34:36.744Z,100.00
2023-08-12T04:37:03.615Z,100.00
2023-08-12T04:39:34.743Z,99.59
2023-08-12T04:42:01.171Z,99.61
2023-08-12T04:44:32.009Z,100.00
2023-08-12T04:47:03.977Z,98.62
2023-08-12T04:49:33.291Z,99.09
2023-08-12T04:51:59.952Z,97.77
2023-08-12T04:54:26.393Z,97.94
2023-08-12T04:56:58.409Z,98.05
2023-08-12T04:59:27.523Z,97.42
2023-08-12T05:02:04.010Z,97.68
2023-08-12T05:04:31.455Z,98.13
2023-08-12T05:06:57.972Z,98.94
2023-08-12T05:09:24.357Z,99.70
2023-08-12T05:11:50.844Z,98.54
2023-08-12T05:14:17.289Z,98.90
2023-08-12T05:16:43.813Z,100.00
2023-08-12T05:19:10.281Z,100.00
2023-08-12T05:21:36.743Z,100.00
2023-08-12T05:24:03.310Z,99.61
2023-08-12T05:26:29.788Z,99.23
2023-08-12T05:28:56.242Z,98.51
2023-08-12T05:31:23.283Z,98.87
2023-08-12T05:33:49.975Z,98.01
2023-08-12T05:36:16.466Z,99.50
2023-08-12T05:38:42.925Z,98.04
2023-08-12T05:41:09.549Z,97.41
2023-08-12T05:43:36.129Z,95.95
2023-08-12T05:46:02.721Z,96.53
2023-08-12T05:48:29.578Z,96.96
2023-08-12T05:50:56.104Z,96.51
2023-08-12T05:53:23.524Z,96.38
2023-08-12T05:55:49.949Z,97.49
2023-08-12T05:58:16.793Z,99.49
2023-08-12T06:00:46.348Z,98.22
2023-08-12T06:03:13.753Z,98.14
2023-08-12T06:05:42.372Z,96.36
2023-08-12T06:08:08.836Z,94.07
2023-08-12T06:10:37.071Z,91.39
2023-08-12T06:13:05.520Z,90.67
2023-08-12T06:15:32.521Z,86.83
2023-08-12T06:17:59.308Z,87.23
2023-08-12T06:20:26.044Z,87.72
2023-08-12T06:22:53.157Z,89.27
2023-08-12T06:25:20.579Z,87.74
2023-08-12T06:27:48.241Z,88.38
2023-08-12T06:30:15.573Z,86.10
2023-08-12T06:32:42.102Z,84.89
2023-08-12T06:35:08.951Z,82.34
2023-08-12T06:37:35.407Z,76.25
2023-08-12T06:40:01.952Z,78.94
2023-08-12T06:42:28.364Z,80.83
2023-08-12T06:44:57.663Z,80.77
2023-08-12T06:47:24.219Z,81.72
2023-08-12T06:49:50.749Z,84.05
2023-08-12T06:52:17.341Z,84.42
2023-08-12T06:54:43.831Z,84.01
2023-08-12T06:57:12.863Z,83.77
2023-08-12T06:59:39.621Z,83.67
2023-08-12T07:02:07.639Z,82.81
2023-08-12T07:04:34.127Z,84.12
2023-08-12T07:07:00.918Z,85.29
2023-08-12T07:09:27.304Z,87.29
2023-08-12T07:11:53.782Z,86.46
2023-08-12T07:14:20.224Z,87.26
2023-08-12T07:16:46.672Z,87.27
2023-08-12T07:19:15.713Z,87.19
2023-08-12T07:21:45.952Z,86.74
2023-08-12T07:24:12.427Z,82.25
2023-08-12T07:26:38.847Z,80.82
2023-08-12T07:29:05.520Z,81.30
2023-08-12T07:31:32.044Z,82.68
2023-08-12T07:33:58.663Z,81.86
2023-08-12T07:36:25.143Z,81.57
2023-08-12T07:38:51.624Z,83.40
2023-08-12T07:41:18.087Z,83.28
2023-08-12T07:43:44.565Z,83.91
2023-08-12T07:46:11.024Z,84.43
2023-08-12T07:48:39.192Z,85.17
2023-08-12T07:51:06.072Z,88.10
2023-08-12T07:53:32.510Z,87.08
2023-08-12T07:55:58.996Z,88.69
2023-08-12T07:58:25.458Z,88.13
2023-08-12T08:00:55.028Z,87.71
2023-08-12T08:03:21.664Z,89.18
2023-08-12T08:05:48.152Z,87.50
2023-08-12T08:08:14.892Z,88.24
2023-08-12T08:10:41.407Z,89.88
2023-08-12T08:13:07.908Z,89.22
2023-08-12T08:15:34.342Z,89.17
2023-08-12T08:18:02.643Z,87.96
2023-08-12T08:20:29.265Z,90.88
2023-08-12T08:22:56.377Z,91.38
2023-08-12T08:25:23.160Z,91.44
2023-08-12T08:27:50.141Z,88.85
2023-08-12T08:30:16.649Z,90.20
2023-08-12T08:32:43.222Z,91.39
2023-08-12T08:35:09.823Z,90.39
2023-08-12T08:37:36.343Z,89.48
2023-08-12T08:40:03.530Z,87.84
2023-08-12T08:42:30.624Z,87.42
2023-08-12T08:45:01.270Z,85.67
2023-08-12T08:47:28.502Z,81.03
2023-08-12T08:49:57.256Z,80.44
2023-08-12T08:52:27.652Z,81.31
2023-08-12T08:54:54.415Z,80.25
2023-08-12T08:57:24.414Z,81.14
2023-08-12T09:00:16.366Z,79.76
2023-08-12T09:02:45.614Z,76.46
2023-08-12T09:05:13.980Z,76.19
2023-08-12T09:07:41.913Z,75.50
2023-08-12T09:10:09.655Z,78.43
2023-08-12T09:12:37.516Z,79.46
2023-08-12T09:15:05.602Z,78.81
2023-08-12T09:17:33.652Z,82.30
2023-08-12T09:20:00.526Z,81.93
2023-08-12T09:22:27.554Z,80.58
2023-08-12T09:25:00.243Z,79.56
2023-08-12T09:27:26.706Z,79.72
2023-08-12T09:30:00.185Z,83.35
2023-08-12T09:32:26.829Z,82.09
2023-08-12T09:34:54.621Z,81.54
2023-08-12T09:37:23.250Z,80.15
2023-08-12T09:39:53.084Z,84.30
2023-08-12T09:42:22.394Z,82.33
2023-08-12T09:44:48.900Z,83.65
2023-08-12T09:47:15.533Z,83.16
2023-08-12T09:49:42.235Z,81.14
2023-08-12T09:52:10.115Z,78.96
2023-08-12T09:54:37.157Z,78.41
2023-08-12T09:57:07.428Z,81.32
2023-08-12T09:59:38.962Z,80.05
2023-08-12T10:02:08.736Z,76.62
2023-08-12T10:04:42.042Z,72.24
2023-08-12T10:07:13.907Z,73.75
2023-08-12T10:09:41.051Z,75.45
2023-08-12T10:12:08.454Z,78.09
2023-08-12T10:14:35.188Z,76.76
2023-08-12T10:17:06.184Z,78.74
2023-08-12T10:19:37.100Z,75.45
2023-08-12T10:22:04.767Z,76.54
2023-08-12T10:24:32.357Z,76.27
2023-08-12T10:26:58.801Z,76.77
2023-08-12T10:29:26.888Z,76.81
2023-08-12T10:31:53.754Z,77.75
2023-08-12T10:34:24.713Z,79.44
2023-08-12T10:37:02.799Z,79.86
2023-08-12T10:39:33.038Z,79.13
2023-08-12T10:42:00.151Z,78.73
2023-08-12T10:44:55.356Z,77.92
2023-08-12T10:47:21.934Z,78.47
2023-08-12T10:49:54.087Z,79.78
2023-08-12T10:52:34.787Z,79.84
2023-08-12T10:55:24.240Z,81.74
2023-08-12T10:57:55.068Z,82.72
2023-08-12T11:00:28.162Z,86.19
2023-08-12T11:02:57.401Z,86.67
2023-08-12T11:05:25.100Z,85.91
2023-08-12T11:07:59.686Z,86.86
2023-08-12T11:10:27.958Z,85.23
2023-08-12T11:12:57.417Z,85.43
2023-08-12T11:15:43.090Z,89.77
2023-08-12T11:18:20.703Z,92.45
2023-08-12T11:20:51.000Z,92.31
2023-08-12T11:23:18.226Z,89.72
2023-08-12T11:25:46.029Z,89.93
2023-08-12T11:28:12.759Z,87.47
2023-08-12T11:30:43.383Z,86.13
2023-08-12T11:33:10.496Z,82.94
2023-08-12T11:35:38.848Z,80.66
2023-08-12T11:38:06.501Z,77.92
2023-08-12T11:40:32.972Z,74.66
2023-08-12T11:42:59.367Z,75.61
2023-08-12T11:45:28.301Z,74.67
2023-08-12T11:47:55.788Z,70.26
2023-08-12T11:50:27.459Z,69.85
2023-08-12T11:52:56.158Z,70.81
2023-08-12T11:55:23.117Z,67.37
2023-08-12T11:57:51.835Z,68.06
2023-08-12T12:00:19.766Z,69.88
2023-08-12T12:02:51.610Z,72.00
2023-08-12T12:05:23.653Z,71.80
2023-08-12T12:07:51.222Z,71.28
2023-08-12T12:10:31.013Z,72.34
2023-08-12T12:13:01.004Z,73.82
2023-08-12T12:15:27.481Z,71.82
2023-08-12T12:17:59.345Z,72.68
2023-08-12T12:20:28.056Z,70.86
2023-08-12T12:22:54.768Z,70.95
2023-08-12T12:25:22.825Z,69.37
2023-08-12T12:27:49.373Z,70.64
2023-08-12T12:30:17.175Z,71.11
2023-08-12T12:32:44.139Z,71.10
2023-08-12T12:35:10.602Z,70.54
2023-08-12T12:37:40.397Z,70.17
2023-08-12T12:40:08.382Z,72.07
2023-08-12T12:42:34.902Z,69.51
2023-08-12T12:45:01.356Z,67.71
2023-08-12T12:47:27.906Z,67.32
2023-08-12T12:49:54.313Z,61.95
2023-08-12T12:52:20.789Z,59.44
2023-08-12T12:54:53.280Z,58.87
2023-08-12T12:57:19.720Z,55.70
2023-08-12T12:59:46.143Z,54.31
2023-08-12T13:02:12.872Z,52.85
2023-08-12T13:04:39.613Z,49.94
2023-08-12T13:07:06.124Z,48.33
2023-08-12T13:09:45.652Z,47.66
2023-08-12T13:12:12.260Z,45.82
2023-08-12T13:14:38.984Z,44.06
2023-08-12T13:17:05.424Z,44.83
2023-08-12T13:19:31.831Z,46.84
2023-08-12T13:21:58.280Z,48.07
2023-08-12T13:24:37.930Z,45.89
2023-08-12T13:27:04.823Z,44.86
2023-08-12T13:29:33.000Z,45.62
2023-08-12T13:31:59.483Z,42.96
2023-08-12T13:34:25.927Z,45.51
2023-08-12T13:36:52.321Z,44.09
2023-08-12T13:39:18.926Z,44.95
2023-08-12T13:41:45.341Z,46.63
2023-08-12T13:44:11.794Z,51.37
2023-08-12T13:46:38.200Z,54.97
2023-08-12T13:49:04.659Z,55.72
2023-08-12T13:51:31.796Z,55.22
2023-08-12T13:53:58.306Z,56.46
2023-08-12T13:56:24.770Z,58.88
2023-08-12T13:58:51.198Z,58.63
2023-08-12T14:01:17.633Z,54.37
2023-08-12T14:03:44.072Z,50.51
2023-08-12T14:06:10.548Z,49.93
2023-08-12T14:08:37.051Z,47.99
2023-08-12T14:11:03.468Z,47.54
2023-08-12T14:13:29.893Z,48.39
2023-08-12T14:15:56.418Z,48.11
2023-08-12T14:18:22.951Z,48.37
2023-08-12T14:20:49.443Z,49.81
2023-08-12T14:23:15.856Z,48.06
2023-08-12T14:25:42.299Z,48.52
2023-08-12T14:28:08.676Z,48.90
2023-08-12T14:30:35.198Z,53.20
2023-08-12T14:33:01.750Z,56.32
2023-08-12T14:35:28.266Z,56.71
2023-08-12T14:37:54.719Z,58.36
2023-08-12T14:40:21.165Z,60.11
2023-08-12T14:42:47.592Z,55.44
2023-08-12T14:45:14.111Z,56.44
2023-08-12T14:47:40.634Z,54.00
2023-08-12T14:50:07.510Z,55.31
2023-08-12T14:52:33.924Z,57.68
2023-08-12T14:55:03.263Z,58.69
2023-08-12T14:57:29.716Z,57.79
2023-08-12T14:59:56.100Z,54.06
2023-08-12T15:02:25.519Z,50.94
2023-08-12T15:04:52.181Z,50.89
2023-08-12T15:07:19.797Z,56.06
2023-08-12T15:09:46.584Z,57.54
2023-08-12T15:12:13.151Z,57.50
2023-08-12T15:14:39.730Z,60.82
2023-08-12T15:17:06.252Z,60.32
2023-08-12T15:19:32.651Z,61.58
2023-08-12T15:21:59.107Z,61.64
2023-08-12T15:24:25.622Z,60.77
2023-08-12T15:26:52.130Z,61.65
2023-08-12T15:29:18.687Z,62.21
2023-08-12T15:31:45.197Z,60.34
2023-08-12T15:34:11.630Z,59.71
2023-08-12T15:36:41.981Z,59.43
2023-08-12T15:39:09.139Z,59.66
2023-08-12T15:41:42.061Z,61.29
2023-08-12T15:44:08.484Z,63.96
2023-08-12T15:46:41.006Z,63.38
2023-08-12T15:49:11.661Z,63.98
2023-08-12T15:51:39.088Z,64.26
2023-08-12T15:54:06.192Z,65.33
2023-08-12T15:56:35.908Z,65.71
2023-08-12T15:59:03.431Z,65.28
2023-08-12T16:01:31.883Z,66.37
2023-08-12T16:03:59.271Z,66.88
2023-08-12T16:06:26.025Z,67.49
2023-08-12T16:09:09.980Z,66.63
2023-08-12T16:11:39.210Z,67.16
2023-08-12T16:14:05.635Z,66.65
2023-08-12T16:16:32.311Z,67.62
2023-08-12T16:18:58.842Z,66.40
2023-08-12T16:21:25.794Z,66.22
2023-08-12T16:23:52.490Z,65.44
2023-08-12T16:26:20.879Z,64.73
2023-08-12T16:28:48.568Z,63.59
2023-08-12T16:31:15.073Z,64.50
2023-08-12T16:33:44.762Z,63.93
2023-08-12T16:36:11.233Z,63.84
2023-08-12T16:38:37.679Z,64.95
2023-08-12T16:41:04.774Z,64.28
2023-08-12T16:43:31.360Z,65.09
2023-08-12T16:45:57.904Z,65.18
2023-08-12T16:48:24.376Z,65.41
2023-08-12T16:50:51.258Z,65.43
2023-08-12T16:53:17.741Z,65.92
2023-08-12T16:55:44.186Z,66.37
2023-08-12T16:58:10.632Z,65.95
2023-08-12T17:00:37.032Z,66.87
2023-08-12T17:03:03.736Z,66.14
2023-08-12T17:05:30.206Z,66.19
2023-08-12T17:07:56.612Z,65.90
2023-08-12T17:10:23.717Z,65.73
2023-08-12T17:12:50.215Z,65.88
2023-08-12T17:15:16.715Z,66.47
2023-08-12T17:17:43.226Z,66.69
2023-08-12T17:20:10.024Z,68.09
2023-08-12T17:22:36.538Z,67.94
2023-08-12T17:25:05.985Z,68.66
2023-08-12T17:27:33.201Z,68.51
2023-08-12T17:29:59.661Z,69.22
2023-08-12T17:32:26.252Z,69.64
2023-08-12T17:34:53.027Z,69.21
2023-08-12T17:37:23.571Z,68.71
2023-08-12T17:39:50.204Z,70.16
2023-08-12T17:42:16.585Z,70.98
2023-08-12T17:44:43.025Z,73.04
2023-08-12T17:47:09.525Z,73.26
2023-08-12T17:49:35.943Z,74.18
2023-08-12T17:52:02.498Z,73.66
2023-08-12T17:54:30.439Z,73.49
2023-08-12T17:56:56.895Z,73.96
2023-08-12T17:59:23.355Z,74.05
2023-08-12T18:01:49.873Z,73.75
2023-08-12T18:04:16.302Z,73.78
2023-08-12T18:06:42.739Z,73.82
2023-08-12T18:09:10.494Z,73.37
2023-08-12T18:11:37.049Z,74.23
2023-08-12T18:14:03.591Z,73.82
2023-08-12T18:16:30.177Z,74.68
2023-08-12T18:18:56.692Z,73.78
2023-08-12T18:21:23.071Z,74.46
2023-08-12T18:23:49.545Z,74.25
2023-08-12T18:26:15.975Z,73.87
2023-08-12T18:28:42.537Z,74.74
2023-08-12T18:31:09.453Z,75.36
2023-08-12T18:33:35.987Z,75.74
2023-08-12T18:36:02.410Z,75.75
2023-08-12T18:38:28.854Z,76.69
2023-08-12T18:40:55.331Z,76.52
2023-08-12T18:43:21.815Z,76.23
2023-08-12T18:45:48.312Z,75.97
2023-08-12T18:48:14.876Z,76.51
2023-08-12T18:50:41.405Z,76.96
2023-08-12T18:53:07.848Z,76.61
2023-08-12T18:55:34.425Z,76.39
2023-08-12T18:58:00.861Z,76.71
2023-08-12T19:00:27.483Z,77.51
2023-08-12T19:02:54.006Z,77.89
2023-08-12T19:05:20.497Z,79.11
2023-08-12T19:07:46.938Z,80.54
2023-08-12T19:10:13.397Z,80.73
2023-08-12T19:12:39.896Z,80.52
2023-08-12T19:15:06.847Z,80.72
2023-08-12T19:17:33.357Z,81.80
2023-08-12T19:19:59.863Z,83.18
2023-08-12T19:22:26.349Z,82.14
2023-08-12T19:24:52.868Z,82.89
2023-08-12T19:27:22.168Z,82.69
2023-08-12T19:29:48.562Z,85.53
2023-08-12T19:32:15.273Z,84.95
2023-08-12T19:34:41.919Z,84.68
2023-08-12T19:37:08.562Z,85.91
2023-08-12T19:39:35.035Z,85.81
2023-08-12T19:42:02.752Z,86.78
2023-08-12T19:44:31.498Z,87.20
2023-08-12T19:46:58.188Z,87.38
2023-08-12T19:49:25.358Z,88.10
2023-08-12T19:51:51.878Z,87.66
2023-08-12T19:54:18.302Z,87.52
2023-08-12T19:56:44.780Z,87.21
2023-08-12T19:59:13.372Z,87.27
2023-08-12T20:01:43.194Z,88.06
2023-08-12T20:04:09.654Z,90.82
2023-08-12T20:06:36.438Z,91.53
2023-08-12T20:09:03.087Z,91.51
2023-08-12T20:11:29.602Z,92.19
2023-08-12T20:13:56.139Z,92.96
2023-08-12T20:16:22.607Z,94.25
2023-08-12T20:18:49.926Z,93.74
2023-08-12T20:21:16.365Z,93.16
2023-08-12T20:23:42.944Z,93.79
2023-08-12T20:26:10.952Z,92.21
2023-08-12T20:28:37.460Z,91.70
2023-08-12T20:31:03.875Z,91.88
2023-08-12T20:33:33.142Z,93.01
2023-08-12T20:35:59.806Z,94.27
2023-08-12T20:38:26.221Z,94.56
2023-08-12T20:40:52.683Z,94.45
2023-08-12T20:43:19.092Z,95.49
2023-08-12T20:45:45.541Z,97.07
2023-08-12T20:48:12.198Z,98.17
2023-08-12T20:50:38.701Z,98.07
2023-08-12T20:53:08.028Z,97.02
2023-08-12T20:55:34.598Z,95.96
2023-08-12T20:58:01.111Z,95.36
2023-08-12T21:00:27.912Z,95.32
2023-08-12T21:02:54.462Z,96.01
2023-08-12T21:05:21.045Z,95.43
2023-08-12T21:07:47.537Z,94.35
2023-08-12T21:10:14.093Z,94.33
2023-08-12T21:12:40.610Z,93.67
2023-08-12T21:15:07.649Z,93.54
2023-08-12T21:17:34.327Z,95.07
2023-08-12T21:20:00.811Z,94.88
2023-08-12T21:22:27.326Z,95.11
2023-08-12T21:24:53.821Z,96.50
2023-08-12T21:27:20.375Z,95.01
2023-08-12T21:29:46.872Z,95.40
2023-08-12T21:32:13.658Z,96.24
2023-08-12T21:34:40.235Z,95.91
2023-08-12T21:37:06.755Z,97.42
2023-08-12T21:39:33.157Z,98.17
2023-08-12T21:41:59.627Z,97.12
2023-08-12T21:44:26.102Z,95.83
2023-08-12T21:46:52.516Z,95.83
2023-08-12T21:49:18.965Z,96.56
2023-08-12T21:51:45.859Z,96.69
2023-08-12T21:54:12.388Z,95.43
2023-08-12T21:56:38.870Z,95.29
2023-08-12T21:59:05.312Z,95.62
2023-08-12T22:01:31.926Z,96.42
2023-08-12T22:03:58.435Z,97.00
2023-08-12T22:06:24.825Z,96.47
2023-08-12T22:08:51.295Z,97.37
2023-08-12T22:11:17.906Z,96.59
2023-08-12T22:13:44.321Z,98.41
2023-08-12T22:16:10.832Z,97.02
2023-08-12T22:18:37.674Z,96.06
2023-08-12T22:21:04.762Z,97.84
2023-08-12T22:23:31.336Z,98.28
2023-08-12T22:25:57.771Z,97.50
2023-08-12T22:28:24.157Z,96.62
2023-08-12T22:30:53.172Z,95.58
2023-08-12T22:33:19.849Z,95.59
2023-08-12T22:35:46.560Z,95.40
2023-08-12T22:38:13.264Z,95.38
2023-08-12T22:40:39.702Z,94.39
2023-08-12T22:43:06.172Z,94.01
2023-08-12T22:45:44.254Z,94.34
2023-08-12T22:48:10.889Z,95.38
2023-08-12T22:50:37.901Z,96.00
2023-08-12T22:53:04.611Z,98.34
2023-08-12T22:55:31.165Z,96.33
2023-08-12T22:57:57.780Z,96.42
2023-08-12T23:00:24.501Z,96.89
2023-08-12T23:02:51.118Z,95.82
2023-08-12T23:05:17.663Z,96.06
2023-08-12T23:07:44.173Z,95.59
2023-08-12T23:10:11.196Z,96.16
2023-08-12T23:12:37.843Z,96.71
2023-08-12T23:15:04.910Z,96.47
2023-08-12T23:17:31.430Z,95.53
2023-08-12T23:19:57.870Z,95.47
2023-08-12T23:22:24.367Z,96.54
2023-08-12T23:24:50.851Z,95.58
2023-08-12T23:27:17.283Z,95.79
2023-08-12T23:29:43.739Z,95.05
2023-08-12T23:32:10.454Z,96.14
2023-08-12T23:34:36.848Z,95.94
2023-08-12T23:37:03.313Z,95.66
2023-08-12T23:39:31.659Z,97.07
2023-08-12T23:41:58.576Z,97.47
2023-08-12T23:44:25.025Z,96.72
2023-08-12T23:46:51.479Z,96.13
2023-08-12T23:49:17.925Z,96.67
2023-08-12T23:51:44.346Z,96.68
2023-08-12T23:54:11.119Z,97.01
2023-08-12T23:56:37.727Z,97.51
2023-08-12T23:59:04.727Z,97.23
